createdAt,value
2023-05-10T00:00:56.719Z,75.91
2023-05-10T00:03:23.768Z,76.83
2023-05-10T00:05:50.943Z,75.98
2023-05-10T00:08:17.889Z,74.60
2023-05-10T00:10:44.898Z,75.46
2023-05-10T00:13:12.000Z,75.42
2023-05-10T00:15:38.924Z,75.95
2023-05-10T00:18:05.893Z,75.30
2023-05-10T00:20:33.076Z,75.67
2023-05-10T00:23:00.076Z,74.50
2023-05-10T00:25:27.094Z,77.29
2023-05-10T00:27:56.103Z,76.74
2023-05-10T00:30:23.052Z,75.79
2023-05-10T00:32:50.741Z,77.25
2023-05-10T00:35:17.949Z,77.94
2023-05-10T00:37:44.883Z,75.32
2023-05-10T00:40:12.531Z,76.36
2023-05-10T00:42:41.160Z,75.95
2023-05-10T00:45:08.970Z,75.41
2023-05-10T00:47:36.827Z,75.36
2023-05-10T00:50:05.570Z,75.17
2023-05-10T00:52:33.068Z,76.94
2023-05-10T00:55:00.907Z,76.33
2023-05-10T00:57:28.323Z,77.36
2023-05-10T00:59:55.422Z,75.90
2023-05-10T01:02:22.441Z,75.22
2023-05-10T01:04:50.504Z,76.50
2023-05-10T01:07:17.838Z,75.48
2023-05-10T01:09:44.908Z,75.57
2023-05-10T01:12:12.819Z,75.24
2023-05-10T01:14:40.375Z,77.42
2023-05-10T01:17:08.415Z,76.18
2023-05-10T01:19:37.878Z,76.74
2023-05-10T01:22:11.232Z,75.99
2023-05-10T01:25:09.028Z,76.15
2023-05-10T01:28:16.593Z,74.78
2023-05-10T01:31:03.798Z,76.10
2023-05-10T01:33:55.468Z,75.92
2023-05-10T01:36:52.160Z,77.49
2023-05-10T01:39:33.135Z,77.42
2023-05-10T01:42:07.389Z,75.60
2023-05-10T01:44:57.717Z,76.37
2023-05-10T01:47:32.317Z,76.21
2023-05-10T01:50:05.064Z,76.77
2023-05-10T01:52:39.228Z,77.06
2023-05-10T01:55:10.131Z,76.10
2023-05-10T01:57:40.465Z,74.08
2023-05-10T02:00:09.457Z,76.68
2023-05-10T02:02:47.059Z,75.81
2023-05-10T02:05:16.998Z,75.40
2023-05-10T02:07:44.826Z,76.23
2023-05-10T02:10:14.498Z,77.15
2023-05-10T02:12:48.353Z,76.16
2023-05-10T02:15:22.990Z,76.15
2023-05-10T02:17:50.476Z,76.52
2023-05-10T02:20:20.227Z,75.96
2023-05-10T02:22:50.337Z,75.81
2023-05-10T02:25:21.170Z,75.31
2023-05-10T02:27:49.214Z,74.32
2023-05-10T02:30:17.998Z,76.52
2023-05-10T02:32:46.474Z,76.06
2023-05-10T02:35:13.696Z,75.50
2023-05-10T02:37:42.201Z,75.39
2023-05-10T02:40:11.819Z,75.44
2023-05-10T02:42:43.060Z,75.62
2023-05-10T02:45:15.906Z,76.77
2023-05-10T02:47:44.629Z,77.91
2023-05-10T02:50:11.873Z,78.11
2023-05-10T02:52:49.010Z,75.98
2023-05-10T02:55:20.425Z,75.90
2023-05-10T02:57:55.488Z,75.38
2023-05-10T03:00:22.634Z,77.60
2023-05-10T03:02:49.687Z,76.48
2023-05-10T03:05:17.057Z,76.77
2023-05-10T03:07:44.764Z,78.06
2023-05-10T03:10:12.173Z,77.54
2023-05-10T03:12:57.836Z,76.75
2023-05-10T03:15:39.786Z,75.91
2023-05-10T03:18:13.752Z,77.08
2023-05-10T03:20:47.221Z,77.04
2023-05-10T03:23:44.163Z,75.36
2023-05-10T03:26:15.989Z,76.11
2023-05-10T03:28:43.637Z,77.74
2023-05-10T03:31:11.528Z,76.47
2023-05-10T03:33:51.388Z,75.38
2023-05-10T03:36:23.571Z,77.24
2023-05-10T03:38:50.952Z,76.89
2023-05-10T03:41:18.408Z,77.95
2023-05-10T03:43:45.404Z,77.46
2023-05-10T03:46:12.450Z,76.89
2023-05-10T03:48:39.829Z,76.81
2023-05-10T03:51:06.850Z,77.40
2023-05-10T03:53:33.818Z,76.06
2023-05-10T03:56:00.903Z,76.75
2023-05-10T03:58:28.078Z,76.15
2023-05-10T04:00:55.050Z,75.60
2023-05-10T04:03:22.242Z,76.86
2023-05-10T04:05:49.339Z,75.99
2023-05-10T04:08:17.408Z,76.36
2023-05-10T04:10:44.525Z,76.75
2023-05-10T04:13:12.146Z,76.12
2023-05-10T04:15:39.111Z,76.40
2023-05-10T04:18:08.678Z,75.79
2023-05-10T04:20:35.970Z,76.53
2023-05-10T04:23:02.926Z,75.72
2023-05-10T04:25:29.832Z,76.27
2023-05-10T04:27:56.783Z,75.83
2023-05-10T04:30:23.767Z,76.30
2023-05-10T04:32:50.758Z,76.83
2023-05-10T04:35:17.837Z,75.93
2023-05-10T04:37:44.798Z,76.48
2023-05-10T04:40:12.299Z,76.03
2023-05-10T04:42:42.320Z,75.90
2023-05-10T04:45:10.545Z,76.18
2023-05-10T04:47:38.048Z,76.59
2023-05-10T04:50:06.237Z,76.12
2023-05-10T04:52:33.210Z,77.21
2023-05-10T04:55:00.206Z,76.42
2023-05-10T04:57:27.208Z,76.68
2023-05-10T04:59:54.202Z,76.47
2023-05-10T05:02:21.253Z,76.65
2023-05-10T05:04:48.234Z,76.24
2023-05-10T05:07:15.705Z,76.05
2023-05-10T05:09:42.663Z,76.89
2023-05-10T05:12:14.686Z,76.71
2023-05-10T05:14:42.193Z,76.61
2023-05-10T05:17:09.173Z,77.47
2023-05-10T05:19:36.603Z,76.64
2023-05-10T05:22:03.600Z,77.03
2023-05-10T05:24:35.690Z,76.57
2023-05-10T05:27:02.702Z,76.32
2023-05-10T05:29:29.789Z,76.88
2023-05-10T05:31:56.804Z,77.22
2023-05-10T05:34:23.838Z,76.71
2023-05-10T05:36:51.043Z,76.89
2023-05-10T05:39:18.077Z,76.52
2023-05-10T05:41:45.144Z,76.37
2023-05-10T05:44:12.110Z,76.80
2023-05-10T05:46:39.030Z,76.67
2023-05-10T05:49:05.969Z,76.71
2023-05-10T05:51:33.151Z,76.90
2023-05-10T05:54:00.159Z,77.22
2023-05-10T05:56:27.123Z,76.84
2023-05-10T05:58:54.171Z,77.26
2023-05-10T06:01:22.095Z,76.85
2023-05-10T06:03:50.908Z,77.72
2023-05-10T06:06:18.798Z,77.15
2023-05-10T06:08:45.848Z,77.04
2023-05-10T06:11:12.960Z,77.39
2023-05-10T06:13:41.873Z,78.47
2023-05-10T06:16:08.920Z,76.89
2023-05-10T06:18:35.912Z,77.81
2023-05-10T06:21:02.909Z,77.49
2023-05-10T06:23:29.831Z,77.18
2023-05-10T06:25:56.813Z,77.13
2023-05-10T06:28:23.760Z,77.56
2023-05-10T06:30:50.721Z,77.77
2023-05-10T06:33:17.674Z,78.90
2023-05-10T06:35:44.643Z,77.92
2023-05-10T06:38:11.667Z,78.83
2023-05-10T06:40:42.320Z,78.32
2023-05-10T06:43:09.792Z,77.77
2023-05-10T06:45:36.773Z,78.69
2023-05-10T06:48:03.921Z,77.99
2023-05-10T06:50:30.967Z,78.42
2023-05-10T06:52:57.887Z,80.43
2023-05-10T06:55:24.834Z,79.45
2023-05-10T06:57:51.882Z,78.17
2023-05-10T07:00:20.407Z,79.92
2023-05-10T07:02:48.713Z,79.97
2023-05-10T07:05:16.284Z,78.79
2023-05-10T07:07:43.724Z,78.72
2023-05-10T07:10:17.359Z,80.02
2023-05-10T07:12:44.396Z,80.49
2023-05-10T07:15:11.637Z,82.01
2023-05-10T07:17:38.770Z,81.47
2023-05-10T07:20:06.765Z,80.08
2023-05-10T07:22:33.756Z,80.61
2023-05-10T07:25:00.722Z,81.33
2023-05-10T07:27:27.676Z,81.80
2023-05-10T07:29:55.541Z,80.87
2023-05-10T07:32:22.722Z,80.38
2023-05-10T07:34:49.811Z,80.03
2023-05-10T07:37:17.154Z,81.13
2023-05-10T07:39:44.114Z,81.44
2023-05-10T07:42:11.071Z,80.97
2023-05-10T07:44:38.000Z,80.77
2023-05-10T07:47:04.990Z,80.55
2023-05-10T07:49:31.932Z,81.26
2023-05-10T07:51:58.836Z,80.75
2023-05-10T07:54:25.788Z,80.29
2023-05-10T07:56:52.930Z,81.41
2023-05-10T07:59:19.896Z,81.75
2023-05-10T08:01:47.020Z,81.73
2023-05-10T08:04:14.184Z,80.91
2023-05-10T08:06:41.738Z,81.12
2023-05-10T08:09:09.410Z,81.15
2023-05-10T08:11:36.429Z,80.43
2023-05-10T08:14:03.627Z,81.14
2023-05-10T08:16:30.645Z,81.04
2023-05-10T08:18:57.854Z,80.35
2023-05-10T08:21:24.889Z,81.24
2023-05-10T08:23:51.906Z,80.37
2023-05-10T08:26:18.820Z,81.84
2023-05-10T08:28:45.778Z,80.69
2023-05-10T08:31:13.366Z,80.54
2023-05-10T08:33:42.196Z,80.98
2023-05-10T08:36:10.173Z,80.74
2023-05-10T08:38:38.426Z,80.87
2023-05-10T08:41:06.858Z,80.80
2023-05-10T08:43:35.275Z,81.36
2023-05-10T08:46:03.935Z,80.72
2023-05-10T08:48:32.035Z,80.85
2023-05-10T08:51:01.194Z,80.66
2023-05-10T08:53:31.995Z,80.81
2023-05-10T08:55:58.932Z,79.70
2023-05-10T08:58:26.561Z,79.68
2023-05-10T09:00:54.362Z,80.39
2023-05-10T09:03:21.522Z,80.09
2023-05-10T09:05:49.962Z,80.25
2023-05-10T09:08:18.262Z,79.79
2023-05-10T09:10:48.301Z,79.71
2023-05-10T09:13:16.549Z,79.34
2023-05-10T09:15:45.554Z,78.89
2023-05-10T09:18:13.334Z,79.07
2023-05-10T09:20:41.045Z,78.91
2023-05-10T09:23:08.364Z,79.15
2023-05-10T09:25:35.976Z,78.97
2023-05-10T09:28:02.984Z,79.05
2023-05-10T09:30:31.608Z,78.97
2023-05-10T09:33:00.372Z,79.08
2023-05-10T09:35:33.286Z,78.67
2023-05-10T09:38:05.873Z,78.58
2023-05-10T09:40:33.167Z,78.71
2023-05-10T09:43:07.219Z,77.97
2023-05-10T09:45:38.483Z,78.04
2023-05-10T09:48:06.947Z,77.72
2023-05-10T09:50:35.059Z,78.23
2023-05-10T09:53:04.348Z,78.06
2023-05-10T09:55:37.042Z,77.41
2023-05-10T09:58:05.278Z,77.43
2023-05-10T10:00:42.081Z,76.75
2023-05-10T10:03:16.179Z,77.12
2023-05-10T10:05:44.799Z,76.91
2023-05-10T10:08:13.113Z,76.46
2023-05-10T10:10:41.501Z,76.36
2023-05-10T10:13:09.032Z,76.55
2023-05-10T10:15:36.730Z,75.09
2023-05-10T10:18:07.551Z,74.67
2023-05-10T10:20:34.868Z,73.73
2023-05-10T10:23:01.800Z,73.73
2023-05-10T10:25:29.388Z,73.34
2023-05-10T10:28:12.602Z,71.05
2023-05-10T10:30:52.234Z,73.76
2023-05-10T10:33:46.843Z,74.64
2023-05-10T10:36:16.549Z,73.24
2023-05-10T10:38:49.421Z,73.50
2023-05-10T10:41:41.725Z,71.24
2023-05-10T10:44:26.713Z,71.11
2023-05-10T10:47:06.881Z,71.19
2023-05-10T10:49:38.525Z,73.13
2023-05-10T10:52:37.982Z,74.56
2023-05-10T10:55:18.246Z,72.36
2023-05-10T10:57:49.510Z,70.16
2023-05-10T11:00:34.107Z,69.19
2023-05-10T11:03:14.261Z,70.43
2023-05-10T11:05:48.963Z,71.62
2023-05-10T11:08:35.747Z,71.59
2023-05-10T11:11:10.335Z,71.24
2023-05-10T11:13:50.198Z,69.17
2023-05-10T11:16:26.243Z,69.59
2023-05-10T11:19:12.209Z,70.06
2023-05-10T11:21:51.541Z,70.11
2023-05-10T11:24:27.776Z,68.88
2023-05-10T11:26:54.851Z,69.15
2023-05-10T11:29:21.983Z,69.64
2023-05-10T11:31:51.609Z,69.69
2023-05-10T11:34:34.485Z,68.32
2023-05-10T11:37:01.850Z,67.26
2023-05-10T11:39:31.221Z,66.71
2023-05-10T11:41:59.169Z,67.25
2023-05-10T11:44:35.532Z,64.17
2023-05-10T11:47:03.375Z,66.05
2023-05-10T11:49:30.722Z,65.80
2023-05-10T11:52:08.436Z,66.97
2023-05-10T11:54:38.305Z,66.43
2023-05-10T11:57:06.148Z,65.68
2023-05-10T11:59:33.552Z,65.49
2023-05-10T12:02:00.941Z,65.98
2023-05-10T12:04:31.754Z,65.84
2023-05-10T12:07:03.688Z,65.70
2023-05-10T12:09:44.650Z,65.87
2023-05-10T12:12:17.874Z,65.12
2023-05-10T12:14:44.808Z,65.67
2023-05-10T12:17:14.978Z,65.14
2023-05-10T12:19:42.409Z,65.14
2023-05-10T12:22:09.340Z,65.83
2023-05-10T12:24:39.002Z,66.14
2023-05-10T12:27:09.236Z,66.04
2023-05-10T12:29:36.860Z,66.21
2023-05-10T12:32:03.914Z,66.72
2023-05-10T12:34:37.143Z,66.71
2023-05-10T12:37:05.206Z,67.20
2023-05-10T12:39:45.604Z,67.73
2023-05-10T12:42:12.743Z,67.06
2023-05-10T12:44:40.715Z,67.35
2023-05-10T12:47:07.945Z,67.45
2023-05-10T12:49:35.146Z,68.03
2023-05-10T12:52:04.033Z,67.83
2023-05-10T12:54:31.051Z,68.30
2023-05-10T12:56:57.978Z,67.58
2023-05-10T12:59:24.909Z,67.20
2023-05-10T13:01:51.880Z,66.10
2023-05-10T13:04:18.836Z,63.94
2023-05-10T13:06:46.030Z,62.93
2023-05-10T13:09:13.007Z,63.67
2023-05-10T13:11:40.435Z,63.10
2023-05-10T13:14:07.383Z,61.42
2023-05-10T13:16:34.447Z,62.10
2023-05-10T13:19:01.544Z,62.19
2023-05-10T13:21:28.844Z,62.60
2023-05-10T13:23:56.431Z,61.69
2023-05-10T13:26:23.477Z,61.71
2023-05-10T13:28:52.404Z,59.38
2023-05-10T13:31:19.412Z,59.84
2023-05-10T13:33:46.559Z,58.63
2023-05-10T13:36:13.562Z,59.33
2023-05-10T13:38:40.562Z,59.14
2023-05-10T13:41:07.506Z,58.90
2023-05-10T13:43:34.529Z,57.48
2023-05-10T13:46:01.715Z,58.19
2023-05-10T13:48:28.708Z,57.70
2023-05-10T13:50:55.816Z,56.50
2023-05-10T13:53:23.077Z,57.35
2023-05-10T13:55:50.458Z,56.38
2023-05-10T13:58:17.527Z,58.64
2023-05-10T14:00:44.455Z,56.38
2023-05-10T14:03:12.106Z,56.59
2023-05-10T14:05:39.565Z,56.94
2023-05-10T14:08:06.948Z,57.83
2023-05-10T14:10:33.991Z,57.51
2023-05-10T14:13:01.144Z,57.81
2023-05-10T14:15:29.198Z,56.75
2023-05-10T14:17:56.339Z,57.88
2023-05-10T14:20:23.407Z,56.66
2023-05-10T14:22:50.528Z,58.56
2023-05-10T14:25:18.516Z,56.31
2023-05-10T14:27:45.720Z,56.38
2023-05-10T14:30:13.217Z,56.95
2023-05-10T14:32:40.190Z,56.97
2023-05-10T14:35:09.431Z,58.03
2023-05-10T14:37:37.911Z,56.50
2023-05-10T14:40:05.610Z,57.71
2023-05-10T14:42:32.694Z,58.98
2023-05-10T14:44:59.717Z,57.46
2023-05-10T14:47:26.678Z,56.32
2023-05-10T14:49:53.605Z,57.07
2023-05-10T14:52:20.650Z,57.66
2023-05-10T14:54:47.604Z,56.01
2023-05-10T14:57:14.518Z,55.84
2023-05-10T14:59:41.496Z,55.58
2023-05-10T15:02:09.296Z,53.72
2023-05-10T15:04:36.747Z,52.78
2023-05-10T15:07:05.029Z,53.94
2023-05-10T15:09:32.007Z,55.12
2023-05-10T15:11:59.033Z,55.44
2023-05-10T15:14:26.175Z,57.67
2023-05-10T15:16:53.128Z,56.78
2023-05-10T15:19:21.271Z,56.33
2023-05-10T15:21:48.293Z,55.94
2023-05-10T15:24:15.460Z,56.50
2023-05-10T15:26:42.553Z,54.00
2023-05-10T15:29:09.527Z,54.33
2023-05-10T15:31:36.875Z,56.39
2023-05-10T15:34:03.931Z,56.49
2023-05-10T15:36:32.422Z,54.47
2023-05-10T15:38:59.383Z,56.37
2023-05-10T15:41:26.300Z,55.75
2023-05-10T15:43:54.453Z,55.52
2023-05-10T15:46:21.432Z,57.27
2023-05-10T15:48:48.390Z,58.16
2023-05-10T15:51:15.742Z,58.00
2023-05-10T15:53:56.531Z,55.05
2023-05-10T15:56:30.015Z,58.70
2023-05-10T15:58:57.039Z,57.74
2023-05-10T16:01:24.057Z,58.68
2023-05-10T16:03:51.034Z,57.88
2023-05-10T16:06:18.100Z,55.98
2023-05-10T16:08:45.017Z,56.53
2023-05-10T16:11:11.964Z,55.82
2023-05-10T16:13:38.894Z,54.56
2023-05-10T16:16:08.741Z,54.47
2023-05-10T16:18:36.043Z,53.90
2023-05-10T16:21:03.264Z,53.70
2023-05-10T16:23:30.562Z,53.71
2023-05-10T16:25:57.572Z,52.11
2023-05-10T16:28:24.536Z,51.13
2023-05-10T16:30:51.846Z,50.68
2023-05-10T16:33:18.804Z,51.37
2023-05-10T16:35:45.771Z,52.81
2023-05-10T16:38:12.733Z,52.43
2023-05-10T16:40:39.823Z,53.01
2023-05-10T16:43:07.683Z,53.25
2023-05-10T16:45:34.797Z,53.46
2023-05-10T16:48:01.841Z,53.30
2023-05-10T16:50:28.824Z,53.76
2023-05-10T16:52:55.775Z,53.87
2023-05-10T16:55:25.434Z,54.21
2023-05-10T16:57:58.539Z,52.55
2023-05-10T17:00:29.015Z,53.54
2023-05-10T17:02:56.384Z,53.22
2023-05-10T17:05:23.508Z,53.33
2023-05-10T17:07:50.512Z,54.29
2023-05-10T17:10:17.685Z,54.11
2023-05-10T17:12:45.521Z,53.94
2023-05-10T17:15:12.750Z,54.14
2023-05-10T17:17:39.729Z,54.35
2023-05-10T17:20:08.276Z,54.22
2023-05-10T17:22:35.309Z,53.35
2023-05-10T17:25:02.270Z,53.83
2023-05-10T17:27:30.126Z,54.12
2023-05-10T17:29:57.886Z,54.21
2023-05-10T17:32:25.795Z,54.48
2023-05-10T17:34:52.761Z,54.52
2023-05-10T17:37:19.685Z,54.53
2023-05-10T17:39:46.659Z,54.63
2023-05-10T17:42:16.166Z,54.85
2023-05-10T17:44:43.906Z,54.57
2023-05-10T17:47:10.893Z,54.42
2023-05-10T17:49:37.928Z,54.77
2023-05-10T17:52:04.998Z,54.96
2023-05-10T17:54:32.044Z,54.82
2023-05-10T17:57:00.756Z,55.06
2023-05-10T17:59:27.721Z,55.10
2023-05-10T18:01:54.628Z,55.21
2023-05-10T18:04:21.711Z,54.88
2023-05-10T18:06:49.267Z,54.88
2023-05-10T18:09:17.789Z,55.07
2023-05-10T18:11:44.700Z,55.08
2023-05-10T18:14:11.622Z,55.34
2023-05-10T18:16:38.607Z,54.95
2023-05-10T18:19:05.619Z,55.18
2023-05-10T18:21:32.667Z,55.44
2023-05-10T18:23:59.734Z,55.23
2023-05-10T18:26:26.686Z,55.56
2023-05-10T18:28:53.606Z,55.17
2023-05-10T18:31:20.795Z,55.19
2023-05-10T18:33:47.763Z,55.43
2023-05-10T18:36:15.029Z,55.27
2023-05-10T18:38:42.068Z,55.38
2023-05-10T18:41:12.240Z,55.11
2023-05-10T18:43:39.181Z,55.21
2023-05-10T18:46:06.210Z,55.54
2023-05-10T18:48:33.188Z,55.39
2023-05-10T18:51:00.185Z,55.82
2023-05-10T18:53:27.120Z,55.86
2023-05-10T18:55:58.886Z,55.81
2023-05-10T18:58:28.104Z,55.92
2023-05-10T19:00:55.285Z,56.45
2023-05-10T19:03:22.513Z,56.27
2023-05-10T19:05:49.444Z,56.60
2023-05-10T19:08:17.090Z,55.93
2023-05-10T19:10:44.270Z,56.50
2023-05-10T19:13:11.276Z,56.13
2023-05-10T19:15:38.400Z,56.68
2023-05-10T19:18:08.721Z,56.08
2023-05-10T19:20:35.832Z,56.17
2023-05-10T19:25:35.960Z,56.65
2023-05-10T19:28:02.908Z,56.70
2023-05-10T19:30:31.819Z,56.57
2023-05-10T19:32:58.857Z,56.34
2023-05-10T19:35:25.797Z,56.38
2023-05-10T19:37:52.729Z,56.79
2023-05-10T19:40:19.891Z,57.35
2023-05-10T19:42:46.961Z,57.28
2023-05-10T19:45:15.523Z,56.99
2023-05-10T19:47:43.145Z,56.98
2023-05-10T19:50:12.271Z,56.63
2023-05-10T19:52:39.428Z,57.30
2023-05-10T19:55:07.201Z,56.96
2023-05-10T19:57:34.180Z,57.20
2023-05-10T20:00:01.127Z,57.58
2023-05-10T20:02:28.145Z,57.38
2023-05-10T20:04:55.102Z,57.20
2023-05-10T20:07:22.285Z,57.64
2023-05-10T20:09:49.539Z,57.32
2023-05-10T20:12:16.604Z,57.47
2023-05-10T20:14:43.766Z,57.57
2023-05-10T20:17:11.108Z,57.81
2023-05-10T20:19:38.191Z,57.40
2023-05-10T20:22:05.471Z,57.51
2023-05-10T20:24:32.455Z,57.66
2023-05-10T20:27:00.403Z,57.86
2023-05-10T20:29:27.342Z,57.65
2023-05-10T20:31:54.315Z,57.75
2023-05-10T20:34:21.439Z,57.60
2023-05-10T20:36:48.665Z,57.63
2023-05-10T20:39:15.608Z,58.30
2023-05-10T20:41:42.610Z,57.79
2023-05-10T20:44:09.606Z,58.05
2023-05-10T20:46:36.722Z,58.08
2023-05-10T20:49:04.644Z,58.21
2023-05-10T20:51:33.152Z,58.11
2023-05-10T20:54:02.454Z,58.58
2023-05-10T20:56:29.498Z,58.41
2023-05-10T20:58:56.521Z,58.62
2023-05-10T21:01:23.628Z,58.25
2023-05-10T21:03:50.615Z,58.21
2023-05-10T21:06:17.593Z,58.39
2023-05-10T21:08:44.522Z,58.40
2023-05-10T21:11:11.482Z,58.75
2023-05-10T21:13:38.403Z,58.75
2023-05-10T21:16:05.683Z,58.72
2023-05-10T21:18:32.700Z,58.73
2023-05-10T21:20:59.883Z,59.01
2023-05-10T21:23:26.868Z,58.75
2023-05-10T21:25:53.826Z,58.75
2023-05-10T21:28:20.786Z,58.52
2023-05-10T21:30:47.885Z,59.22
2023-05-10T21:33:14.863Z,58.92
2023-05-10T21:35:43.057Z,58.80
2023-05-10T21:38:10.341Z,58.81
2023-05-10T21:40:38.541Z,59.05
2023-05-10T21:43:06.075Z,58.70
2023-05-10T21:45:39.028Z,58.78
2023-05-10T21:48:06.119Z,58.54
2023-05-10T21:50:33.057Z,59.03
2023-05-10T21:53:00.053Z,58.87
2023-05-10T21:55:27.363Z,59.42
2023-05-10T21:57:54.281Z,59.26
2023-05-10T22:00:21.416Z,58.83
2023-05-10T22:02:48.426Z,59.42
2023-05-10T22:05:15.530Z,59.26
2023-05-10T22:07:42.473Z,59.10
2023-05-10T22:10:09.825Z,58.99
2023-05-10T22:12:36.858Z,60.18
2023-05-10T22:17:34.482Z,59.26
2023-05-10T22:20:01.430Z,59.79
2023-05-10T22:22:28.488Z,59.74
2023-05-10T22:24:55.429Z,59.43
2023-05-10T22:27:22.358Z,59.69
2023-05-10T22:29:49.289Z,59.81
2023-05-10T22:32:16.221Z,59.39
2023-05-10T22:34:43.186Z,59.95
2023-05-10T22:37:14.696Z,59.55
2023-05-10T22:39:41.650Z,59.72
2023-05-10T22:42:08.579Z,60.18
2023-05-10T22:44:35.520Z,60.48
2023-05-10T22:47:02.977Z,60.15
2023-05-10T22:49:29.941Z,59.91
2023-05-10T22:51:56.879Z,59.56
2023-05-10T22:54:23.881Z,60.00
2023-05-10T22:56:51.017Z,59.83
2023-05-10T22:59:18.020Z,60.19
2023-05-10T23:01:44.966Z,59.81
2023-05-10T23:04:12.409Z,60.29
2023-05-10T23:06:39.658Z,60.46
2023-05-10T23:09:06.633Z,60.36
2023-05-10T23:11:33.548Z,60.36
2023-05-10T23:14:00.557Z,60.29
2023-05-10T23:16:27.504Z,60.64
2023-05-10T23:18:54.772Z,60.33
2023-05-10T23:21:21.815Z,60.39
2023-05-10T23:23:48.791Z,60.77
2023-05-10T23:26:16.225Z,60.81
2023-05-10T23:28:43.235Z,60.68
2023-05-10T23:31:10.166Z,61.00
2023-05-10T23:33:37.153Z,61.04
2023-05-10T23:36:04.255Z,60.62
2023-05-10T23:38:31.203Z,60.48
2023-05-10T23:40:58.378Z,60.61
2023-05-10T23:43:25.496Z,61.28
2023-05-10T23:45:55.048Z,60.82
2023-05-10T23:48:22.138Z,60.98
2023-05-10T23:50:49.365Z,60.73
2023-05-10T23:53:16.665Z,60.96
2023-05-10T23:55:43.670Z,60.66
2023-05-10T23:58:10.641Z,60.94
